sensor_id;sensor_type;location;lat;lon;timestamp;temperature;humidity
20560;DHT22;10438;51.454;6.718;2022-08-21T00:02:20;18.30;99.90
20560;DHT22;10438;51.454;6.718;2022-08-21T00:04:46;18.30;99.90
20560;DHT22;10438;51.454;6.718;2022-08-21T00:07:12;18.20;99.90
20560;DHT22;10438;51.454;6.718;2022-08-21T00:09:38;18.20;99.90
20560;DHT22;10438;51.454;6.718;2022-08-21T00:12:05;18.10;99.90
20560;DHT22;10438;51.454;6.718;2022-08-21T00:14:31;18.10;99.90
20560;DHT22;10438;51.454;6.718;2022-08-21T00:16:57;18.00;99.90
20560;DHT22;10438;51.454;6.718;2022-08-21T00:19:23;18.00;99.90
20560;DHT22;10438;51.454;6.718;2022-08-21T00:21:50;17.90;99.90
20560;DHT22;10438;51.454;6.718;2022-08-21T00:24:17;17.80;99.90
20560;DHT22;10438;51.454;6.718;2022-08-21T00:26:43;17.80;99.90
20560;DHT22;10438;51.454;6.718;2022-08-21T00:29:09;17.80;99.90
20560;DHT22;10438;51.454;6.718;2022-08-21T00:31:35;17.70;99.90
20560;DHT22;10438;51.454;6.718;2022-08-21T00:34:01;17.60;99.90
20560;DHT22;10438;51.454;6.718;2022-08-21T00:36:27;17.60;99.90
20560;DHT22;10438;51.454;6.718;2022-08-21T00:38:52;17.60;99.90
20560;DHT22;10438;51.454;6.718;2022-08-21T00:41:18;17.60;99.90
20560;DHT22;10438;51.454;6.718;2022-08-21T00:43:43;17.60;99.90
20560;DHT22;10438;51.454;6.718;2022-08-21T00:46:09;17.60;99.90
20560;DHT22;10438;51.454;6.718;2022-08-21T00:48:35;17.50;99.90
20560;DHT22;10438;51.454;6.718;2022-08-21T00:51:15;17.50;99.90
20560;DHT22;10438;51.454;6.718;2022-08-21T00:53:45;17.40;99.90
20560;DHT22;10438;51.454;6.718;2022-08-21T00:56:12;17.40;99.90
20560;DHT22;10438;51.454;6.718;2022-08-21T00:58:40;17.30;99.90
20560;DHT22;10438;51.454;6.718;2022-08-21T01:01:07;17.30;99.90
20560;DHT22;10438;51.454;6.718;2022-08-21T01:03:34;17.30;99.90
20560;DHT22;10438;51.454;6.718;2022-08-21T01:06:00;17.20;99.90
20560;DHT22;10438;51.454;6.718;2022-08-21T01:08:26;17.20;99.90
20560;DHT22;10438;51.454;6.718;2022-08-21T01:10:54;17.10;99.90
20560;DHT22;10438;51.454;6.718;2022-08-21T01:13:21;17.10;99.90
20560;DHT22;10438;51.454;6.718;2022-08-21T01:15:50;17.10;99.90
20560;DHT22;10438;51.454;6.718;2022-08-21T01:18:19;17.10;99.90
20560;DHT22;10438;51.454;6.718;2022-08-21T01:23:32;16.90;99.90
20560;DHT22;10438;51.454;6.718;2022-08-21T01:25:58;16.90;99.90
20560;DHT22;10438;51.454;6.718;2022-08-21T01:28:24;17.00;99.90
20560;DHT22;10438;51.454;6.718;2022-08-21T01:30:51;16.90;99.90
20560;DHT22;10438;51.454;6.718;2022-08-21T01:33:18;16.90;99.90
20560;DHT22;10438;51.454;6.718;2022-08-21T01:35:45;16.80;99.90
20560;DHT22;10438;51.454;6.718;2022-08-21T01:38:11;16.80;99.90
20560;DHT22;10438;51.454;6.718;2022-08-21T01:40:37;16.90;99.90
20560;DHT22;10438;51.454;6.718;2022-08-21T01:43:03;16.90;99.90
20560;DHT22;10438;51.454;6.718;2022-08-21T01:45:28;16.90;99.90
20560;DHT22;10438;51.454;6.718;2022-08-21T01:47:54;16.90;99.90
20560;DHT22;10438;51.454;6.718;2022-08-21T01:50:21;16.90;99.90
20560;DHT22;10438;51.454;6.718;2022-08-21T01:52:47;16.90;99.90
20560;DHT22;10438;51.454;6.718;2022-08-21T01:55:13;16.90;99.90
20560;DHT22;10438;51.454;6.718;2022-08-21T01:57:39;16.90;99.90
20560;DHT22;10438;51.454;6.718;2022-08-21T02:00:08;17.00;99.90
20560;DHT22;10438;51.454;6.718;2022-08-21T02:02:35;17.00;99.90
20560;DHT22;10438;51.454;6.718;2022-08-21T02:05:01;17.00;99.90
20560;DHT22;10438;51.454;6.718;2022-08-21T02:07:42;17.00;99.90
20560;DHT22;10438;51.454;6.718;2022-08-21T02:10:10;17.00;99.90
20560;DHT22;10438;51.454;6.718;2022-08-21T02:12:36;17.10;99.90
20560;DHT22;10438;51.454;6.718;2022-08-21T02:15:04;17.20;99.90
20560;DHT22;10438;51.454;6.718;2022-08-21T02:17:41;17.20;99.90
20560;DHT22;10438;51.454;6.718;2022-08-21T02:20:08;17.20;99.90
20560;DHT22;10438;51.454;6.718;2022-08-21T02:22:34;17.20;99.90
20560;DHT22;10438;51.454;6.718;2022-08-21T02:25:00;17.20;99.90
20560;DHT22;10438;51.454;6.718;2022-08-21T02:27:26;17.20;99.90
20560;DHT22;10438;51.454;6.718;2022-08-21T02:29:52;17.20;99.90
20560;DHT22;10438;51.454;6.718;2022-08-21T02:32:18;17.20;99.90
20560;DHT22;10438;51.454;6.718;2022-08-21T02:34:43;17.20;99.90
20560;DHT22;10438;51.454;6.718;2022-08-21T02:37:09;17.20;99.90
20560;DHT22;10438;51.454;6.718;2022-08-21T02:39:36;17.20;99.90
20560;DHT22;10438;51.454;6.718;2022-08-21T02:42:02;17.20;99.90
20560;DHT22;10438;51.454;6.718;2022-08-21T02:44:28;17.20;99.90
20560;DHT22;10438;51.454;6.718;2022-08-21T02:46:54;17.10;99.90
20560;DHT22;10438;51.454;6.718;2022-08-21T02:49:20;17.10;99.90
20560;DHT22;10438;51.454;6.718;2022-08-21T02:51:46;17.10;99.90
20560;DHT22;10438;51.454;6.718;2022-08-21T02:54:11;17.10;99.90
20560;DHT22;10438;51.454;6.718;2022-08-21T02:56:37;17.10;99.90
20560;DHT22;10438;51.454;6.718;2022-08-21T02:59:02;17.00;99.90
20560;DHT22;10438;51.454;6.718;2022-08-21T03:01:29;17.00;99.90
20560;DHT22;10438;51.454;6.718;2022-08-21T03:03:54;17.00;99.90
20560;DHT22;10438;51.454;6.718;2022-08-21T03:06:21;17.00;99.90
20560;DHT22;10438;51.454;6.718;2022-08-21T03:08:47;17.00;99.90
20560;DHT22;10438;51.454;6.718;2022-08-21T03:11:14;16.90;99.90
20560;DHT22;10438;51.454;6.718;2022-08-21T03:13:40;17.00;99.90
20560;DHT22;10438;51.454;6.718;2022-08-21T03:16:06;16.90;99.90
20560;DHT22;10438;51.454;6.718;2022-08-21T03:18:32;16.90;99.90
20560;DHT22;10438;51.454;6.718;2022-08-21T03:20:58;16.90;99.90
20560;DHT22;10438;51.454;6.718;2022-08-21T03:23:24;16.90;99.90
20560;DHT22;10438;51.454;6.718;2022-08-21T03:25:49;16.90;99.90
20560;DHT22;10438;51.454;6.718;2022-08-21T03:28:19;16.90;99.90
20560;DHT22;10438;51.454;6.718;2022-08-21T03:30:48;16.90;99.90
20560;DHT22;10438;51.454;6.718;2022-08-21T03:33:15;16.80;99.90
20560;DHT22;10438;51.454;6.718;2022-08-21T03:35:45;16.80;99.90
20560;DHT22;10438;51.454;6.718;2022-08-21T03:38:12;16.80;99.90
20560;DHT22;10438;51.454;6.718;2022-08-21T03:40:42;16.80;99.90
20560;DHT22;10438;51.454;6.718;2022-08-21T03:43:08;16.70;99.90
20560;DHT22;10438;51.454;6.718;2022-08-21T03:45:34;16.70;99.90
20560;DHT22;10438;51.454;6.718;2022-08-21T03:48:02;16.60;99.90
20560;DHT22;10438;51.454;6.718;2022-08-21T03:50:31;16.60;99.90
20560;DHT22;10438;51.454;6.718;2022-08-21T03:52:57;16.60;99.90
20560;DHT22;10438;51.454;6.718;2022-08-21T03:55:23;16.50;99.90
20560;DHT22;10438;51.454;6.718;2022-08-21T03:57:49;16.50;99.90
20560;DHT22;10438;51.454;6.718;2022-08-21T04:00:16;16.50;99.90
20560;DHT22;10438;51.454;6.718;2022-08-21T04:02:42;16.50;99.90
20560;DHT22;10438;51.454;6.718;2022-08-21T04:05:09;16.50;99.90
20560;DHT22;10438;51.454;6.718;2022-08-21T04:07:35;16.50;99.90
20560;DHT22;10438;51.454;6.718;2022-08-21T04:10:02;16.50;99.90
20560;DHT22;10438;51.454;6.718;2022-08-21T04:12:27;16.50;99.90
20560;DHT22;10438;51.454;6.718;2022-08-21T04:14:53;16.40;99.90
20560;DHT22;10438;51.454;6.718;2022-08-21T04:17:18;16.50;99.90
20560;DHT22;10438;51.454;6.718;2022-08-21T04:19:44;16.50;99.90
20560;DHT22;10438;51.454;6.718;2022-08-21T04:22:11;16.50;99.90
20560;DHT22;10438;51.454;6.718;2022-08-21T04:24:37;16.50;99.90
20560;DHT22;10438;51.454;6.718;2022-08-21T04:27:02;16.50;99.90
20560;DHT22;10438;51.454;6.718;2022-08-21T04:29:28;16.50;99.90
20560;DHT22;10438;51.454;6.718;2022-08-21T04:31:54;16.50;99.90
20560;DHT22;10438;51.454;6.718;2022-08-21T04:34:19;16.50;99.90
20560;DHT22;10438;51.454;6.718;2022-08-21T04:36:45;16.50;99.90
20560;DHT22;10438;51.454;6.718;2022-08-21T04:39:10;16.50;99.90
20560;DHT22;10438;51.454;6.718;2022-08-21T04:41:36;16.40;99.90
20560;DHT22;10438;51.454;6.718;2022-08-21T04:44:03;16.40;99.90
20560;DHT22;10438;51.454;6.718;2022-08-21T04:46:29;16.40;99.90
20560;DHT22;10438;51.454;6.718;2022-08-21T04:48:54;16.40;99.90
20560;DHT22;10438;51.454;6.718;2022-08-21T04:51:27;16.30;99.90
20560;DHT22;10438;51.454;6.718;2022-08-21T04:53:57;16.30;99.90
20560;DHT22;10438;51.454;6.718;2022-08-21T04:56:27;16.40;99.90
20560;DHT22;10438;51.454;6.718;2022-08-21T04:58:57;16.30;99.90
20560;DHT22;10438;51.454;6.718;2022-08-21T05:01:25;16.30;99.90
20560;DHT22;10438;51.454;6.718;2022-08-21T05:03:55;16.40;99.90
20560;DHT22;10438;51.454;6.718;2022-08-21T05:06:22;16.40;99.90
20560;DHT22;10438;51.454;6.718;2022-08-21T05:08:49;16.40;99.90
20560;DHT22;10438;51.454;6.718;2022-08-21T05:11:17;16.40;99.90
20560;DHT22;10438;51.454;6.718;2022-08-21T05:13:43;16.40;99.90
20560;DHT22;10438;51.454;6.718;2022-08-21T05:16:08;16.40;99.90
20560;DHT22;10438;51.454;6.718;2022-08-21T05:18:34;16.50;99.90
20560;DHT22;10438;51.454;6.718;2022-08-21T05:21:00;16.50;99.90
20560;DHT22;10438;51.454;6.718;2022-08-21T05:23:25;16.50;99.90
20560;DHT22;10438;51.454;6.718;2022-08-21T05:25:52;16.40;99.90
20560;DHT22;10438;51.454;6.718;2022-08-21T05:28:17;16.50;99.90
20560;DHT22;10438;51.454;6.718;2022-08-21T05:30:44;16.50;99.90
20560;DHT22;10438;51.454;6.718;2022-08-21T05:33:09;16.50;99.90
20560;DHT22;10438;51.454;6.718;2022-08-21T05:35:36;16.50;99.90
20560;DHT22;10438;51.454;6.718;2022-08-21T05:38:01;16.50;99.90
20560;DHT22;10438;51.454;6.718;2022-08-21T05:40:27;16.50;99.90
20560;DHT22;10438;51.454;6.718;2022-08-21T05:42:54;16.50;99.90
20560;DHT22;10438;51.454;6.718;2022-08-21T05:45:20;16.50;99.90
20560;DHT22;10438;51.454;6.718;2022-08-21T05:47:46;16.50;99.90
20560;DHT22;10438;51.454;6.718;2022-08-21T05:50:12;16.50;99.90
20560;DHT22;10438;51.454;6.718;2022-08-21T05:52:37;16.60;99.90
20560;DHT22;10438;51.454;6.718;2022-08-21T05:55:04;16.60;99.90
20560;DHT22;10438;51.454;6.718;2022-08-21T05:57:29;16.50;99.90
20560;DHT22;10438;51.454;6.718;2022-08-21T05:59:55;16.60;99.90
20560;DHT22;10438;51.454;6.718;2022-08-21T06:02:21;16.60;99.90
20560;DHT22;10438;51.454;6.718;2022-08-21T06:04:47;16.60;99.90
20560;DHT22;10438;51.454;6.718;2022-08-21T06:07:14;16.60;99.90
20560;DHT22;10438;51.454;6.718;2022-08-21T06:09:40;16.60;99.90
20560;DHT22;10438;51.454;6.718;2022-08-21T06:12:07;16.70;99.90
20560;DHT22;10438;51.454;6.718;2022-08-21T06:14:34;16.80;99.90
20560;DHT22;10438;51.454;6.718;2022-08-21T06:17:07;16.80;99.90
20560;DHT22;10438;51.454;6.718;2022-08-21T06:19:33;16.90;99.90
20560;DHT22;10438;51.454;6.718;2022-08-21T06:21:59;16.90;99.90
20560;DHT22;10438;51.454;6.718;2022-08-21T06:24:25;16.90;99.90
20560;DHT22;10438;51.454;6.718;2022-08-21T06:26:51;17.00;99.90
20560;DHT22;10438;51.454;6.718;2022-08-21T06:29:17;17.00;99.90
20560;DHT22;10438;51.454;6.718;2022-08-21T06:31:43;17.00;99.90
20560;DHT22;10438;51.454;6.718;2022-08-21T06:34:09;17.00;99.90
20560;DHT22;10438;51.454;6.718;2022-08-21T06:36:35;17.10;99.90
20560;DHT22;10438;51.454;6.718;2022-08-21T06:39:00;17.10;99.90
20560;DHT22;10438;51.454;6.718;2022-08-21T06:41:27;17.20;99.90
20560;DHT22;10438;51.454;6.718;2022-08-21T06:43:54;17.20;99.90
20560;DHT22;10438;51.454;6.718;2022-08-21T06:46:20;17.20;99.90
20560;DHT22;10438;51.454;6.718;2022-08-21T06:48:46;17.30;99.90
20560;DHT22;10438;51.454;6.718;2022-08-21T06:51:11;17.40;99.90
20560;DHT22;10438;51.454;6.718;2022-08-21T06:53:37;17.40;99.90
20560;DHT22;10438;51.454;6.718;2022-08-21T06:56:03;17.50;99.90
20560;DHT22;10438;51.454;6.718;2022-08-21T06:58:29;17.60;99.90
20560;DHT22;10438;51.454;6.718;2022-08-21T07:00:54;17.60;99.90
20560;DHT22;10438;51.454;6.718;2022-08-21T07:03:32;17.60;99.90
20560;DHT22;10438;51.454;6.718;2022-08-21T07:05:58;17.80;99.90
20560;DHT22;10438;51.454;6.718;2022-08-21T07:08:25;17.80;99.90
20560;DHT22;10438;51.454;6.718;2022-08-21T07:10:52;17.90;99.90
20560;DHT22;10438;51.454;6.718;2022-08-21T07:13:18;18.10;99.90
20560;DHT22;10438;51.454;6.718;2022-08-21T07:15:44;18.20;99.90
20560;DHT22;10438;51.454;6.718;2022-08-21T07:18:10;18.30;99.90
20560;DHT22;10438;51.454;6.718;2022-08-21T07:20:37;18.40;99.90
20560;DHT22;10438;51.454;6.718;2022-08-21T07:23:06;18.50;99.90
20560;DHT22;10438;51.454;6.718;2022-08-21T07:25:33;18.60;99.90
20560;DHT22;10438;51.454;6.718;2022-08-21T07:27:59;18.60;99.90
20560;DHT22;10438;51.454;6.718;2022-08-21T07:30:25;18.70;99.90
20560;DHT22;10438;51.454;6.718;2022-08-21T07:32:51;18.70;99.90
20560;DHT22;10438;51.454;6.718;2022-08-21T07:35:18;18.80;99.90
20560;DHT22;10438;51.454;6.718;2022-08-21T07:37:44;18.80;99.90
20560;DHT22;10438;51.454;6.718;2022-08-21T07:40:10;18.80;99.90
20560;DHT22;10438;51.454;6.718;2022-08-21T07:42:43;18.80;99.90
20560;DHT22;10438;51.454;6.718;2022-08-21T07:45:10;18.90;99.90
20560;DHT22;10438;51.454;6.718;2022-08-21T07:47:36;18.90;99.90
20560;DHT22;10438;51.454;6.718;2022-08-21T07:50:02;19.00;99.90
20560;DHT22;10438;51.454;6.718;2022-08-21T07:52:28;19.00;99.90
20560;DHT22;10438;51.454;6.718;2022-08-21T07:54:54;19.10;99.90
20560;DHT22;10438;51.454;6.718;2022-08-21T07:57:19;19.10;99.90
20560;DHT22;10438;51.454;6.718;2022-08-21T07:59:45;19.30;99.90
20560;DHT22;10438;51.454;6.718;2022-08-21T08:02:24;19.50;99.90
20560;DHT22;10438;51.454;6.718;2022-08-21T08:04:50;19.50;99.90
20560;DHT22;10438;51.454;6.718;2022-08-21T08:07:16;19.50;99.90
20560;DHT22;10438;51.454;6.718;2022-08-21T08:09:41;19.70;99.90
20560;DHT22;10438;51.454;6.718;2022-08-21T08:12:07;19.80;99.90
20560;DHT22;10438;51.454;6.718;2022-08-21T08:14:32;19.80;99.90
20560;DHT22;10438;51.454;6.718;2022-08-21T08:16:59;20.10;99.90
20560;DHT22;10438;51.454;6.718;2022-08-21T08:19:24;20.20;99.90
20560;DHT22;10438;51.454;6.718;2022-08-21T08:21:50;20.40;99.90
20560;DHT22;10438;51.454;6.718;2022-08-21T08:24:15;20.40;99.90
20560;DHT22;10438;51.454;6.718;2022-08-21T08:26:41;20.40;99.90
20560;DHT22;10438;51.454;6.718;2022-08-21T08:29:06;20.60;99.90
20560;DHT22;10438;51.454;6.718;2022-08-21T08:31:32;20.70;99.90
20560;DHT22;10438;51.454;6.718;2022-08-21T08:33:57;20.70;99.90
20560;DHT22;10438;51.454;6.718;2022-08-21T08:36:35;20.90;99.90
20560;DHT22;10438;51.454;6.718;2022-08-21T08:39:05;20.80;99.90
20560;DHT22;10438;51.454;6.718;2022-08-21T08:41:32;20.90;99.90
20560;DHT22;10438;51.454;6.718;2022-08-21T08:44:02;20.90;99.90
20560;DHT22;10438;51.454;6.718;2022-08-21T08:46:41;21.20;99.90
20560;DHT22;10438;51.454;6.718;2022-08-21T08:49:21;21.20;99.90
20560;DHT22;10438;51.454;6.718;2022-08-21T08:51:55;21.10;99.90
20560;DHT22;10438;51.454;6.718;2022-08-21T08:54:42;21.20;99.90
20560;DHT22;10438;51.454;6.718;2022-08-21T08:57:15;21.20;99.90
20560;DHT22;10438;51.454;6.718;2022-08-21T08:59:44;21.10;99.90
20560;DHT22;10438;51.454;6.718;2022-08-21T09:02:13;21.30;99.90
20560;DHT22;10438;51.454;6.718;2022-08-21T09:04:40;21.40;99.90
20560;DHT22;10438;51.454;6.718;2022-08-21T09:10:20;21.50;99.90
20560;DHT22;10438;51.454;6.718;2022-08-21T09:16:18;21.60;99.90
20560;DHT22;10438;51.454;6.718;2022-08-21T09:19:43;22.10;99.90
20560;DHT22;10438;51.454;6.718;2022-08-21T09:25:41;22.20;99.90
20560;DHT22;10438;51.454;6.718;2022-08-21T09:28:09;22.50;99.90
20560;DHT22;10438;51.454;6.718;2022-08-21T09:30:39;22.50;99.90
20560;DHT22;10438;51.454;6.718;2022-08-21T09:33:06;22.50;99.90
20560;DHT22;10438;51.454;6.718;2022-08-21T09:35:32;22.50;99.90
20560;DHT22;10438;51.454;6.718;2022-08-21T09:38:04;22.20;99.90
20560;DHT22;10438;51.454;6.718;2022-08-21T09:40:32;22.30;99.90
20560;DHT22;10438;51.454;6.718;2022-08-21T09:43:19;22.60;99.90
20560;DHT22;10438;51.454;6.718;2022-08-21T09:45:46;22.60;99.90
20560;DHT22;10438;51.454;6.718;2022-08-21T09:48:15;22.80;99.90
20560;DHT22;10438;51.454;6.718;2022-08-21T09:50:42;22.90;99.90
20560;DHT22;10438;51.454;6.718;2022-08-21T09:53:24;23.00;99.90
20560;DHT22;10438;51.454;6.718;2022-08-21T09:55:57;23.20;95.40
20560;DHT22;10438;51.454;6.718;2022-08-21T09:58:45;23.10;93.90
20560;DHT22;10438;51.454;6.718;2022-08-21T10:01:17;23.10;95.80
20560;DHT22;10438;51.454;6.718;2022-08-21T10:03:44;23.40;98.10
20560;DHT22;10438;51.454;6.718;2022-08-21T10:06:22;23.60;90.20
20560;DHT22;10438;51.454;6.718;2022-08-21T10:08:47;23.60;91.60
20560;DHT22;10438;51.454;6.718;2022-08-21T10:11:16;23.60;84.50
20560;DHT22;10438;51.454;6.718;2022-08-21T10:19:18;24.40;85.30
20560;DHT22;10438;51.454;6.718;2022-08-21T10:21:59;24.40;65.50
20560;DHT22;10438;51.454;6.718;2022-08-21T10:24:45;24.40;77.20
20560;DHT22;10438;51.454;6.718;2022-08-21T10:27:57;24.60;58.30
20560;DHT22;10438;51.454;6.718;2022-08-21T10:30:32;24.60;80.90
20560;DHT22;10438;51.454;6.718;2022-08-21T10:36:15;24.70;66.00
20560;DHT22;10438;51.454;6.718;2022-08-21T10:46:50;24.40;61.60
20560;DHT22;10438;51.454;6.718;2022-08-21T10:54:53;24.50;60.20
20560;DHT22;10438;51.454;6.718;2022-08-21T11:00:20;23.90;57.30
20560;DHT22;10438;51.454;6.718;2022-08-21T11:03:05;23.70;65.50
20560;DHT22;10438;51.454;6.718;2022-08-21T11:05:52;23.60;60.40
20560;DHT22;10438;51.454;6.718;2022-08-21T11:08:35;23.70;61.20
20560;DHT22;10438;51.454;6.718;2022-08-21T11:11:12;23.90;59.20
20560;DHT22;10438;51.454;6.718;2022-08-21T11:21:42;25.10;50.10
20560;DHT22;10438;51.454;6.718;2022-08-21T11:24:29;25.70;50.10
20560;DHT22;10438;51.454;6.718;2022-08-21T11:27:04;26.30;33.30
20560;DHT22;10438;51.454;6.718;2022-08-21T11:29:37;26.30;34.40
20560;DHT22;10438;51.454;6.718;2022-08-21T11:35:11;25.90;31.50
20560;DHT22;10438;51.454;6.718;2022-08-21T11:43:24;26.10;34.50
20560;DHT22;10438;51.454;6.718;2022-08-21T11:45:56;26.30;32.50
20560;DHT22;10438;51.454;6.718;2022-08-21T11:48:37;26.90;27.60
20560;DHT22;10438;51.454;6.718;2022-08-21T11:51:10;27.00;26.30
20560;DHT22;10438;51.454;6.718;2022-08-21T11:53:50;26.70;25.60
20560;DHT22;10438;51.454;6.718;2022-08-21T11:56:36;26.60;26.50
20560;DHT22;10438;51.454;6.718;2022-08-21T11:59:12;26.90;25.50
20560;DHT22;10438;51.454;6.718;2022-08-21T12:01:43;27.00;24.90
20560;DHT22;10438;51.454;6.718;2022-08-21T12:04:27;27.00;23.70
20560;DHT22;10438;51.454;6.718;2022-08-21T12:06:54;27.10;20.40
20560;DHT22;10438;51.454;6.718;2022-08-21T12:12:10;26.10;24.10
20560;DHT22;10438;51.454;6.718;2022-08-21T12:14:42;26.40;25.10
20560;DHT22;10438;51.454;6.718;2022-08-21T12:17:21;26.40;22.90
20560;DHT22;10438;51.454;6.718;2022-08-21T12:22:41;27.40;16.50
20560;DHT22;10438;51.454;6.718;2022-08-21T12:25:16;26.70;17.20
20560;DHT22;10438;51.454;6.718;2022-08-21T12:30:35;26.20;22.10
20560;DHT22;10438;51.454;6.718;2022-08-21T12:33:05;26.50;23.20
20560;DHT22;10438;51.454;6.718;2022-08-21T12:35:40;26.90;20.20
20560;DHT22;10438;51.454;6.718;2022-08-21T12:38:18;27.40;24.80
20560;DHT22;10438;51.454;6.718;2022-08-21T12:40:55;28.10;17.30
20560;DHT22;10438;51.454;6.718;2022-08-21T12:43:29;28.60;17.60
20560;DHT22;10438;51.454;6.718;2022-08-21T12:45:56;28.70;9.80
20560;DHT22;10438;51.454;6.718;2022-08-21T12:48:29;28.40;8.50
20560;DHT22;10438;51.454;6.718;2022-08-21T12:51:24;28.50;9.20
20560;DHT22;10438;51.454;6.718;2022-08-21T12:53:55;28.30;8.10
20560;DHT22;10438;51.454;6.718;2022-08-21T12:56:30;27.60;9.80
20560;DHT22;10438;51.454;6.718;2022-08-21T12:59:00;27.40;10.40
20560;DHT22;10438;51.454;6.718;2022-08-21T13:01:43;27.10;12.70
20560;DHT22;10438;51.454;6.718;2022-08-21T13:04:22;27.00;12.10
20560;DHT22;10438;51.454;6.718;2022-08-21T13:06:52;27.10;11.80
20560;DHT22;10438;51.454;6.718;2022-08-21T13:09:22;27.70;13.00
20560;DHT22;10438;51.454;6.718;2022-08-21T13:11:49;28.30;11.80
20560;DHT22;10438;51.454;6.718;2022-08-21T13:14:36;29.10;10.00
20560;DHT22;10438;51.454;6.718;2022-08-21T13:17:04;29.30;7.00
20560;DHT22;10438;51.454;6.718;2022-08-21T13:19:31;29.30;8.30
20560;DHT22;10438;51.454;6.718;2022-08-21T13:21:57;29.20;6.20
20560;DHT22;10438;51.454;6.718;2022-08-21T13:26:51;29.60;6.20
20560;DHT22;10438;51.454;6.718;2022-08-21T13:29:19;29.90;5.90
20560;DHT22;10438;51.454;6.718;2022-08-21T13:31:53;30.50;5.90
20560;DHT22;10438;51.454;6.718;2022-08-21T13:34:25;30.30;1.50
20560;DHT22;10438;51.454;6.718;2022-08-21T13:36:55;29.60;3.00
20560;DHT22;10438;51.454;6.718;2022-08-21T13:39:21;28.80;4.70
20560;DHT22;10438;51.454;6.718;2022-08-21T13:41:49;28.40;6.30
20560;DHT22;10438;51.454;6.718;2022-08-21T13:46:48;28.40;7.50
20560;DHT22;10438;51.454;6.718;2022-08-21T13:49:17;28.80;6.30
20560;DHT22;10438;51.454;6.718;2022-08-21T13:51:44;28.80;5.20
20560;DHT22;10438;51.454;6.718;2022-08-21T13:54:38;28.70;7.00
20560;DHT22;10438;51.454;6.718;2022-08-21T13:57:20;28.40;8.30
20560;DHT22;10438;51.454;6.718;2022-08-21T13:59:49;28.40;7.60
20560;DHT22;10438;51.454;6.718;2022-08-21T14:02:18;28.30;6.40
20560;DHT22;10438;51.454;6.718;2022-08-21T14:05:04;28.10;7.40
20560;DHT22;10438;51.454;6.718;2022-08-21T14:07:36;27.80;8.80
20560;DHT22;10438;51.454;6.718;2022-08-21T14:10:06;27.60;9.50
20560;DHT22;10438;51.454;6.718;2022-08-21T14:12:42;27.30;8.80
20560;DHT22;10438;51.454;6.718;2022-08-21T14:15:09;27.00;9.30
20560;DHT22;10438;51.454;6.718;2022-08-21T14:17:39;26.70;10.70
20560;DHT22;10438;51.454;6.718;2022-08-21T14:20:27;26.70;14.90
20560;DHT22;10438;51.454;6.718;2022-08-21T14:22:53;26.80;15.40
20560;DHT22;10438;51.454;6.718;2022-08-21T14:27:53;27.40;10.20
20560;DHT22;10438;51.454;6.718;2022-08-21T14:30:27;28.30;10.60
20560;DHT22;10438;51.454;6.718;2022-08-21T14:32:52;29.40;7.90
20560;DHT22;10438;51.454;6.718;2022-08-21T14:35:19;29.80;2.40
20560;DHT22;10438;51.454;6.718;2022-08-21T14:37:47;29.50;2.10
20560;DHT22;10438;51.454;6.718;2022-08-21T14:40:13;29.60;4.90
20560;DHT22;10438;51.454;6.718;2022-08-21T14:42:41;29.70;2.80
20560;DHT22;10438;51.454;6.718;2022-08-21T14:45:28;29.90;2.50
20560;DHT22;10438;51.454;6.718;2022-08-21T14:47:55;30.30;2.40
20560;DHT22;10438;51.454;6.718;2022-08-21T14:50:21;31.00;2.70
20560;DHT22;10438;51.454;6.718;2022-08-21T14:52:47;31.40;2.10
20560;DHT22;10438;51.454;6.718;2022-08-21T14:55:13;31.60;1.00
20560;DHT22;10438;51.454;6.718;2022-08-21T14:57:44;32.10;1.00
20560;DHT22;10438;51.454;6.718;2022-08-21T15:00:16;32.30;1.00
20560;DHT22;10438;51.454;6.718;2022-08-21T15:02:42;32.10;1.00
20560;DHT22;10438;51.454;6.718;2022-08-21T15:05:08;32.20;1.00
20560;DHT22;10438;51.454;6.718;2022-08-21T15:07:33;32.00;1.00
20560;DHT22;10438;51.454;6.718;2022-08-21T15:09:59;31.30;1.00
20560;DHT22;10438;51.454;6.718;2022-08-21T15:12:25;30.30;1.00
20560;DHT22;10438;51.454;6.718;2022-08-21T15:14:51;30.10;1.00
20560;DHT22;10438;51.454;6.718;2022-08-21T15:17:16;29.40;1.00
20560;DHT22;10438;51.454;6.718;2022-08-21T15:19:42;29.20;1.00
20560;DHT22;10438;51.454;6.718;2022-08-21T15:22:08;29.70;1.30
20560;DHT22;10438;51.454;6.718;2022-08-21T15:24:34;30.10;1.00
20560;DHT22;10438;51.454;6.718;2022-08-21T15:27:01;30.20;1.00
20560;DHT22;10438;51.454;6.718;2022-08-21T15:29:30;29.80;1.00
20560;DHT22;10438;51.454;6.718;2022-08-21T15:31:58;29.40;1.00
20560;DHT22;10438;51.454;6.718;2022-08-21T15:34:26;28.90;1.00
20560;DHT22;10438;51.454;6.718;2022-08-21T15:36:52;28.40;1.00
20560;DHT22;10438;51.454;6.718;2022-08-21T15:39:18;28.10;1.00
20560;DHT22;10438;51.454;6.718;2022-08-21T15:41:44;27.60;1.00
20560;DHT22;10438;51.454;6.718;2022-08-21T15:44:11;27.50;1.50
20560;DHT22;10438;51.454;6.718;2022-08-21T15:46:37;26.90;1.00
20560;DHT22;10438;51.454;6.718;2022-08-21T15:49:03;26.70;3.30
20560;DHT22;10438;51.454;6.718;2022-08-21T15:51:29;26.70;2.60
20560;DHT22;10438;51.454;6.718;2022-08-21T15:53:54;26.80;2.00
20560;DHT22;10438;51.454;6.718;2022-08-21T15:56:24;26.90;2.50
20560;DHT22;10438;51.454;6.718;2022-08-21T15:58:52;27.10;1.00
20560;DHT22;10438;51.454;6.718;2022-08-21T16:01:20;27.10;1.00
20560;DHT22;10438;51.454;6.718;2022-08-21T16:03:49;26.70;1.40
20560;DHT22;10438;51.454;6.718;2022-08-21T16:06:15;26.60;2.40
20560;DHT22;10438;51.454;6.718;2022-08-21T16:08:41;26.70;3.20
20560;DHT22;10438;51.454;6.718;2022-08-21T16:11:06;27.10;1.90
20560;DHT22;10438;51.454;6.718;2022-08-21T16:13:39;27.40;1.70
20560;DHT22;10438;51.454;6.718;2022-08-21T16:16:08;27.40;1.90
20560;DHT22;10438;51.454;6.718;2022-08-21T16:18:34;27.40;2.40
20560;DHT22;10438;51.454;6.718;2022-08-21T16:21:00;27.40;1.00
20560;DHT22;10438;51.454;6.718;2022-08-21T16:23:25;27.30;1.00
20560;DHT22;10438;51.454;6.718;2022-08-21T16:25:51;27.20;3.70
20560;DHT22;10438;51.454;6.718;2022-08-21T16:28:18;27.00;3.30
20560;DHT22;10438;51.454;6.718;2022-08-21T16:30:47;26.80;1.50
20560;DHT22;10438;51.454;6.718;2022-08-21T16:33:27;26.70;1.90
20560;DHT22;10438;51.454;6.718;2022-08-21T16:35:54;26.50;2.10
20560;DHT22;10438;51.454;6.718;2022-08-21T16:38:20;26.40;1.00
20560;DHT22;10438;51.454;6.718;2022-08-21T16:40:45;26.20;1.00
20560;DHT22;10438;51.454;6.718;2022-08-21T16:43:11;26.10;2.60
20560;DHT22;10438;51.454;6.718;2022-08-21T16:45:37;26.10;3.60
20560;DHT22;10438;51.454;6.718;2022-08-21T16:48:03;26.10;2.60
20560;DHT22;10438;51.454;6.718;2022-08-21T16:50:34;26.10;1.00
20560;DHT22;10438;51.454;6.718;2022-08-21T16:53:00;26.20;1.00
20560;DHT22;10438;51.454;6.718;2022-08-21T16:55:26;26.10;1.00
20560;DHT22;10438;51.454;6.718;2022-08-21T16:57:53;26.10;1.00